createdAt,value
2022-07-25T00:00:16.241Z,78.03
2022-07-25T00:02:19.404Z,77.79
2022-07-25T00:04:23.330Z,78.07
2022-07-25T00:06:26.346Z,78.57
2022-07-25T00:08:29.379Z,78.54
2022-07-25T00:10:32.442Z,78.28
2022-07-25T00:12:35.645Z,78.70
2022-07-25T00:14:39.067Z,78.63
2022-07-25T00:16:43.530Z,78.67
2022-07-25T00:18:47.129Z,78.63
2022-07-25T00:20:50.163Z,78.24
2022-07-25T00:22:53.163Z,78.42
2022-07-25T00:24:56.420Z,79.00
2022-07-25T00:26:59.529Z,78.71
2022-07-25T00:29:02.701Z,78.80
2022-07-25T00:31:05.967Z,78.19
2022-07-25T00:33:10.567Z,78.92
2022-07-25T00:35:13.652Z,78.74
2022-07-25T00:37:16.728Z,79.50
2022-07-25T00:39:20.023Z,79.42
2022-07-25T00:41:23.038Z,79.88
2022-07-25T00:43:26.037Z,79.95
2022-07-25T00:45:29.159Z,79.62
2022-07-25T00:47:32.234Z,79.25
2022-07-25T00:49:36.706Z,79.40
2022-07-25T00:51:39.692Z,79.80
2022-07-25T00:53:42.756Z,79.44
2022-07-25T00:55:46.176Z,80.07
2022-07-25T00:57:49.259Z,80.08
2022-07-25T00:59:52.414Z,79.75
2022-07-25T01:01:55.828Z,80.00
2022-07-25T01:03:58.963Z,80.22
2022-07-25T01:06:03.622Z,80.82
2022-07-25T01:08:07.382Z,80.43
2022-07-25T01:10:12.528Z,80.10
2022-07-25T01:12:15.567Z,80.60
2022-07-25T01:14:18.708Z,80.78
2022-07-25T01:16:21.980Z,81.01
2022-07-25T01:18:25.115Z,80.70
2022-07-25T01:20:30.671Z,81.07
2022-07-25T01:22:33.753Z,80.72
2022-07-25T01:24:36.951Z,80.94
2022-07-25T01:26:40.042Z,80.66
2022-07-25T01:28:43.075Z,81.12
2022-07-25T01:30:46.154Z,81.45
2022-07-25T01:32:49.541Z,81.33
2022-07-25T01:34:52.552Z,81.34
2022-07-25T01:36:56.958Z,81.53
2022-07-25T01:39:00.076Z,80.75
2022-07-25T01:41:03.181Z,81.38
2022-07-25T01:43:06.499Z,81.69
2022-07-25T01:45:10.406Z,82.00
2022-07-25T01:47:13.393Z,81.27
2022-07-25T01:49:16.490Z,82.02
2022-07-25T01:51:20.374Z,81.43
2022-07-25T01:53:24.994Z,82.07
2022-07-25T01:55:29.442Z,81.49
2022-07-25T01:57:33.936Z,82.53
2022-07-25T01:59:40.341Z,82.04
2022-07-25T02:01:44.048Z,82.30
2022-07-25T02:03:47.169Z,82.14
2022-07-25T02:05:50.193Z,81.95
2022-07-25T02:07:53.197Z,81.62
2022-07-25T02:09:57.812Z,82.76
2022-07-25T02:12:00.817Z,82.41
2022-07-25T02:14:04.498Z,81.98
2022-07-25T02:16:07.840Z,82.56
2022-07-25T02:18:11.010Z,82.97
2022-07-25T02:20:13.980Z,83.02
2022-07-25T02:22:17.084Z,83.17
2022-07-25T02:24:20.189Z,83.15
2022-07-25T02:26:24.624Z,82.41
2022-07-25T02:28:28.249Z,82.78
2022-07-25T02:30:31.385Z,82.95
2022-07-25T02:32:34.518Z,83.48
2022-07-25T02:34:37.493Z,83.58
2022-07-25T02:36:40.572Z,83.14
2022-07-25T02:38:43.751Z,83.61
2022-07-25T02:40:46.819Z,83.41
2022-07-25T02:42:51.350Z,83.97
2022-07-25T02:44:54.424Z,83.78
2022-07-25T02:46:57.451Z,83.97
2022-07-25T02:49:01.042Z,83.89
2022-07-25T02:51:04.466Z,83.26
2022-07-25T02:53:07.728Z,84.40
2022-07-25T02:55:11.716Z,84.24
2022-07-25T02:57:14.768Z,83.64
2022-07-25T02:59:19.151Z,84.11
2022-07-25T03:01:22.331Z,83.81
2022-07-25T03:03:25.367Z,84.47
2022-07-25T03:05:28.606Z,83.66
2022-07-25T03:07:32.765Z,84.99
2022-07-25T03:09:35.788Z,84.55
2022-07-25T03:11:38.938Z,84.30
2022-07-25T03:13:42.067Z,84.86
2022-07-25T03:15:46.537Z,83.91
2022-07-25T03:17:49.575Z,83.79
2022-07-25T03:19:52.836Z,83.88
2022-07-25T03:21:55.882Z,84.12
2022-07-25T03:23:58.967Z,83.95
2022-07-25T03:26:02.143Z,85.10
2022-07-25T03:28:05.432Z,84.43
2022-07-25T03:30:10.004Z,83.94
2022-07-25T03:32:14.629Z,85.14
2022-07-25T03:34:17.713Z,84.76
2022-07-25T03:36:20.693Z,84.71
2022-07-25T03:38:24.679Z,85.39
2022-07-25T03:40:28.101Z,84.45
2022-07-25T03:42:35.218Z,83.99
2022-07-25T03:44:39.028Z,85.27
2022-07-25T03:46:42.027Z,84.58
2022-07-25T03:48:46.639Z,84.44
2022-07-25T03:50:49.629Z,85.40
2022-07-25T03:52:52.745Z,84.97
2022-07-25T03:54:55.833Z,84.81
2022-07-25T03:56:58.891Z,84.31
2022-07-25T03:59:01.955Z,84.73
2022-07-25T04:01:05.030Z,85.82
2022-07-25T04:03:13.736Z,84.65
2022-07-25T04:05:18.184Z,84.83
2022-07-25T04:07:21.227Z,85.44
2022-07-25T04:09:24.492Z,85.74
2022-07-25T04:11:28.112Z,84.13
2022-07-25T04:13:31.186Z,85.77
2022-07-25T04:15:34.211Z,85.33
2022-07-25T04:17:39.673Z,84.50
2022-07-25T04:19:42.856Z,85.62
2022-07-25T04:21:48.388Z,85.84
2022-07-25T04:23:51.955Z,84.82
2022-07-25T04:25:54.956Z,85.34
2022-07-25T04:27:58.011Z,84.35
2022-07-25T04:30:01.239Z,85.54
2022-07-25T04:32:04.736Z,85.66
2022-07-25T04:34:08.417Z,84.07
2022-07-25T04:36:11.972Z,84.08
2022-07-25T04:38:16.428Z,84.75
2022-07-25T04:40:19.571Z,83.96
2022-07-25T04:42:22.643Z,84.25
2022-07-25T04:44:25.736Z,84.37
2022-07-25T04:46:28.815Z,84.37
2022-07-25T04:48:31.871Z,84.83
2022-07-25T04:50:34.978Z,84.47
2022-07-25T04:52:38.002Z,83.89
2022-07-25T04:54:42.468Z,83.86
2022-07-25T04:56:45.584Z,83.78
2022-07-25T04:58:49.310Z,83.67
2022-07-25T05:00:52.659Z,83.60
2022-07-25T05:02:55.770Z,83.02
2022-07-25T05:04:58.835Z,83.07
2022-07-25T05:07:06.066Z,83.08
2022-07-25T05:09:09.149Z,83.10
2022-07-25T05:11:13.548Z,84.04
2022-07-25T05:13:16.668Z,83.62
2022-07-25T05:15:20.005Z,83.71
2022-07-25T05:17:23.011Z,82.94
2022-07-25T05:19:26.190Z,82.86
2022-07-25T05:21:29.317Z,83.97
2022-07-25T05:23:32.534Z,83.22
2022-07-25T05:25:35.644Z,83.64
2022-07-25T05:27:40.438Z,81.73
2022-07-25T05:29:43.496Z,81.97
2022-07-25T05:31:47.030Z,82.15
2022-07-25T05:33:50.221Z,82.37
2022-07-25T05:35:53.549Z,82.43
2022-07-25T05:37:56.623Z,81.58
2022-07-25T05:39:59.664Z,81.10
2022-07-25T05:42:02.764Z,81.24
2022-07-25T05:44:07.697Z,80.90
2022-07-25T05:46:11.056Z,80.50
2022-07-25T05:48:14.245Z,79.55
2022-07-25T05:50:17.378Z,79.04
2022-07-25T05:52:20.477Z,77.64
2022-07-25T05:54:24.402Z,77.67
2022-07-25T05:56:42.218Z,77.14
2022-07-25T05:58:46.128Z,76.93
2022-07-25T06:00:51.027Z,75.60
2022-07-25T06:02:54.446Z,73.76
2022-07-25T06:04:57.521Z,74.48
2022-07-25T06:07:00.623Z,73.78
2022-07-25T06:09:03.653Z,72.14
2022-07-25T06:11:11.278Z,71.32
2022-07-25T06:13:14.457Z,71.35
2022-07-25T06:15:22.536Z,70.43
2022-07-25T06:17:32.724Z,70.56
2022-07-25T06:19:35.981Z,69.21
2022-07-25T06:21:38.997Z,68.54
2022-07-25T06:23:42.032Z,67.77
2022-07-25T06:25:50.004Z,68.30
2022-07-25T06:27:53.630Z,67.35
2022-07-25T06:29:56.699Z,67.45
2022-07-25T06:31:59.765Z,67.71
2022-07-25T06:34:04.435Z,66.42
2022-07-25T06:36:08.482Z,66.67
2022-07-25T06:38:11.574Z,66.50
2022-07-25T06:40:14.718Z,65.05
2022-07-25T06:42:17.788Z,64.96
2022-07-25T06:44:20.844Z,64.55
2022-07-25T06:46:23.993Z,62.46
2022-07-25T06:48:27.183Z,62.29
2022-07-25T06:50:31.788Z,62.91
2022-07-25T06:52:35.115Z,62.95
2022-07-25T06:54:38.128Z,62.76
2022-07-25T06:56:41.153Z,60.83
2022-07-25T06:58:46.757Z,61.74
2022-07-25T07:00:50.279Z,59.41
2022-07-25T07:02:56.261Z,58.19
2022-07-25T07:05:01.042Z,57.12
2022-07-25T07:07:05.709Z,58.21
2022-07-25T07:09:08.777Z,57.99
2022-07-25T07:11:13.359Z,58.49
2022-07-25T07:13:23.703Z,57.30
2022-07-25T07:15:27.595Z,56.53
2022-07-25T07:17:30.735Z,56.57
2022-07-25T07:19:33.916Z,55.31
2022-07-25T07:21:36.997Z,55.57
2022-07-25T07:23:41.449Z,55.04
2022-07-25T07:25:45.795Z,54.89
2022-07-25T07:27:49.435Z,55.11
2022-07-25T07:29:52.497Z,54.28
2022-07-25T07:31:55.666Z,54.14
2022-07-25T07:33:59.323Z,53.02
2022-07-25T07:36:02.658Z,52.93
2022-07-25T07:38:05.755Z,52.29
2022-07-25T07:40:17.215Z,53.75
2022-07-25T07:42:21.198Z,54.41
2022-07-25T07:44:24.376Z,53.67
2022-07-25T07:46:27.629Z,52.88
2022-07-25T07:48:31.578Z,52.15
2022-07-25T07:50:34.910Z,51.64
2022-07-25T07:52:38.649Z,52.24
2022-07-25T07:54:59.636Z,50.82
2022-07-25T07:57:04.141Z,53.05
2022-07-25T07:59:07.714Z,51.59
2022-07-25T08:01:11.153Z,51.48
2022-07-25T08:03:14.836Z,51.22
2022-07-25T08:05:22.588Z,52.74
2022-07-25T08:07:25.775Z,51.57
2022-07-25T08:09:28.902Z,51.68
2022-07-25T08:11:32.083Z,51.25
2022-07-25T08:13:38.078Z,51.26
2022-07-25T08:15:41.463Z,51.62
2022-07-25T08:17:45.095Z,51.67
2022-07-25T08:19:48.198Z,49.97
2022-07-25T08:21:51.244Z,51.74
2022-07-25T08:23:54.296Z,51.31
2022-07-25T08:25:57.698Z,50.39
2022-07-25T08:28:00.792Z,51.55
2022-07-25T08:30:06.415Z,50.81
2022-07-25T08:32:09.588Z,51.71
2022-07-25T08:34:13.754Z,50.43
2022-07-25T08:36:16.917Z,50.43
2022-07-25T08:38:20.426Z,50.54
2022-07-25T08:40:26.063Z,50.53
2022-07-25T08:42:29.149Z,49.97
2022-07-25T08:44:37.518Z,49.50
2022-07-25T08:46:43.667Z,49.19
2022-07-25T08:48:46.855Z,49.86
2022-07-25T08:50:51.161Z,49.66
2022-07-25T08:53:10.051Z,49.63
2022-07-25T08:55:20.171Z,49.66
2022-07-25T08:57:23.332Z,49.81
2022-07-25T08:59:26.384Z,48.81
2022-07-25T09:01:34.753Z,48.31
2022-07-25T09:03:40.245Z,49.92
2022-07-25T09:05:43.832Z,48.84
2022-07-25T09:07:46.975Z,48.09
2022-07-25T09:09:50.045Z,49.44
2022-07-25T09:11:53.040Z,47.97
2022-07-25T09:14:00.739Z,47.67
2022-07-25T09:16:05.606Z,47.92
2022-07-25T09:18:13.103Z,48.40
2022-07-25T09:20:22.131Z,47.66
2022-07-25T09:22:25.304Z,48.74
2022-07-25T09:24:29.142Z,48.98
2022-07-25T09:26:32.244Z,48.07
2022-07-25T09:28:41.344Z,49.00
2022-07-25T09:30:55.524Z,48.42
2022-07-25T09:33:02.567Z,48.36
2022-07-25T09:35:06.450Z,48.60
2022-07-25T09:37:12.961Z,48.80
2022-07-25T09:39:16.108Z,48.33
2022-07-25T09:41:19.963Z,47.85
2022-07-25T09:43:23.582Z,47.93
2022-07-25T09:45:31.316Z,48.51
2022-07-25T09:47:36.867Z,47.84
2022-07-25T09:49:42.016Z,48.17
2022-07-25T09:51:45.582Z,48.78
2022-07-25T09:53:50.099Z,46.90
2022-07-25T09:55:55.134Z,48.01
2022-07-25T09:58:01.464Z,47.75
2022-07-25T10:00:06.400Z,45.71
2022-07-25T10:02:23.265Z,45.27
2022-07-25T10:04:37.436Z,46.45
2022-07-25T10:06:42.254Z,46.92
2022-07-25T10:08:45.776Z,47.02
2022-07-25T10:10:50.344Z,47.08
2022-07-25T10:13:07.843Z,47.24
2022-07-25T10:15:14.840Z,46.29
2022-07-25T10:17:22.347Z,46.10
2022-07-25T10:19:58.276Z,46.43
2022-07-25T10:22:01.915Z,46.11
2022-07-25T10:24:07.525Z,46.75
2022-07-25T10:26:14.006Z,46.01
2022-07-25T10:28:20.136Z,45.58
2022-07-25T10:30:24.309Z,46.25
2022-07-25T10:32:27.687Z,44.97
2022-07-25T10:34:31.966Z,45.53
2022-07-25T10:36:45.509Z,45.28
2022-07-25T10:38:51.578Z,45.78
2022-07-25T10:40:54.813Z,45.25
2022-07-25T10:43:02.725Z,46.83
2022-07-25T10:45:09.516Z,46.60
2022-07-25T10:47:13.853Z,45.72
2022-07-25T10:49:29.087Z,45.83
2022-07-25T10:51:41.327Z,45.89
2022-07-25T10:53:46.364Z,45.93
2022-07-25T10:56:05.682Z,45.99
2022-07-25T10:58:18.261Z,45.27
2022-07-25T11:00:22.022Z,45.85
2022-07-25T11:02:25.351Z,44.60
2022-07-25T11:04:29.545Z,44.04
2022-07-25T11:06:35.222Z,44.55
2022-07-25T11:08:38.421Z,43.64
2022-07-25T11:10:41.576Z,44.65
2022-07-25T11:12:45.800Z,45.55
2022-07-25T11:14:50.388Z,45.54
2022-07-25T11:16:57.013Z,46.24
2022-07-25T11:19:02.193Z,46.99
2022-07-25T11:21:07.431Z,45.22
2022-07-25T11:23:10.514Z,44.72
2022-07-25T11:25:14.746Z,45.11
2022-07-25T11:27:24.425Z,45.16
2022-07-25T11:29:28.097Z,45.28
2022-07-25T11:31:36.043Z,45.09
2022-07-25T11:33:39.535Z,47.80
2022-07-25T11:35:42.840Z,45.15
2022-07-25T11:37:48.938Z,45.81
2022-07-25T11:39:52.994Z,46.33
2022-07-25T11:42:06.746Z,43.60
2022-07-25T11:44:09.824Z,43.57
2022-07-25T11:46:13.059Z,45.67
2022-07-25T11:48:19.676Z,43.99
2022-07-25T11:50:30.304Z,44.13
2022-07-25T11:52:35.804Z,45.21
2022-07-25T11:54:38.961Z,44.95
2022-07-25T11:56:43.892Z,45.10
2022-07-25T11:58:57.846Z,44.26
2022-07-25T12:01:00.984Z,45.29
2022-07-25T12:03:08.583Z,46.92
2022-07-25T12:05:15.458Z,47.28
2022-07-25T12:07:18.598Z,46.01
2022-07-25T12:09:23.128Z,46.59
2022-07-25T12:11:26.229Z,45.94
2022-07-25T12:13:30.489Z,45.37
2022-07-25T12:15:36.436Z,44.71
2022-07-25T12:17:39.665Z,44.03
2022-07-25T12:19:47.014Z,43.79
2022-07-25T12:21:51.636Z,43.41
2022-07-25T12:23:54.849Z,44.47
2022-07-25T12:25:58.034Z,45.52
2022-07-25T12:28:01.683Z,45.29
2022-07-25T12:30:05.663Z,45.17
2022-07-25T12:32:08.905Z,45.91
2022-07-25T12:34:12.016Z,45.04
2022-07-25T12:36:15.104Z,46.16
2022-07-25T12:38:19.736Z,45.90
2022-07-25T12:40:22.856Z,45.32
2022-07-25T12:42:27.134Z,45.67
2022-07-25T12:44:30.118Z,45.09
2022-07-25T12:46:33.352Z,45.27
2022-07-25T12:48:37.642Z,44.89
2022-07-25T12:50:40.742Z,44.32
2022-07-25T12:52:44.592Z,43.95
2022-07-25T12:54:49.796Z,43.32
2022-07-25T12:56:53.191Z,44.21
2022-07-25T12:58:56.303Z,43.62
2022-07-25T13:01:01.282Z,43.63
2022-07-25T13:03:06.660Z,44.32
2022-07-25T13:05:12.946Z,44.41
2022-07-25T13:07:16.652Z,44.01
2022-07-25T13:09:19.758Z,43.22
2022-07-25T13:11:24.276Z,44.09
2022-07-25T13:13:27.536Z,44.84
2022-07-25T13:15:30.787Z,46.00
2022-07-25T13:17:33.955Z,45.07
2022-07-25T13:19:37.115Z,45.04
2022-07-25T13:21:40.429Z,45.28
2022-07-25T13:23:43.841Z,44.63
2022-07-25T13:25:47.174Z,44.51
2022-07-25T13:27:51.639Z,44.86
2022-07-25T13:29:55.192Z,45.23
2022-07-25T13:31:58.267Z,46.00
2022-07-25T13:34:01.419Z,45.93
2022-07-25T13:36:05.045Z,46.40
2022-07-25T13:38:10.888Z,47.45
2022-07-25T13:40:14.352Z,46.68
2022-07-25T13:42:17.492Z,46.91
2022-07-25T13:44:22.550Z,46.42
2022-07-25T13:46:25.857Z,46.62
2022-07-25T13:48:31.462Z,46.72
2022-07-25T13:50:35.084Z,46.74
2022-07-25T13:52:38.784Z,46.48
2022-07-25T13:54:42.026Z,47.39
2022-07-25T13:56:45.107Z,47.42
2022-07-25T13:58:48.266Z,47.08
2022-07-25T14:00:53.089Z,47.30
2022-07-25T14:02:56.277Z,47.83
2022-07-25T14:05:03.783Z,47.09
2022-07-25T14:07:07.469Z,47.62
2022-07-25T14:09:10.903Z,46.54
2022-07-25T14:11:14.487Z,47.25
2022-07-25T14:13:17.564Z,47.30
2022-07-25T14:15:20.975Z,46.99
2022-07-25T14:17:30.032Z,47.52
2022-07-25T14:19:33.590Z,47.33
2022-07-25T14:21:36.974Z,47.55
2022-07-25T14:23:40.045Z,46.90
2022-07-25T14:25:43.427Z,46.44
2022-07-25T14:27:46.502Z,47.00
2022-07-25T14:29:49.601Z,47.00
2022-07-25T14:31:52.773Z,47.32
2022-07-25T14:33:58.069Z,48.18
2022-07-25T14:36:01.136Z,47.59
2022-07-25T14:38:06.089Z,48.52
2022-07-25T14:40:11.992Z,48.35
2022-07-25T14:42:15.181Z,49.76
2022-07-25T14:44:19.356Z,48.35
2022-07-25T14:46:22.496Z,49.10
2022-07-25T14:48:25.714Z,48.88
2022-07-25T14:50:30.190Z,49.04
2022-07-25T14:52:33.361Z,49.04
2022-07-25T14:54:36.477Z,49.95
2022-07-25T14:56:40.103Z,50.39
2022-07-25T14:58:43.235Z,49.87
2022-07-25T15:00:47.533Z,50.26
2022-07-25T15:02:50.856Z,50.39
2022-07-25T15:04:54.073Z,50.92
2022-07-25T15:06:58.675Z,51.01
2022-07-25T15:09:01.764Z,50.92
2022-07-25T15:11:04.845Z,50.83
2022-07-25T15:13:29.948Z,51.84
2022-07-25T15:15:31.051Z,52.24
2022-07-25T15:17:34.355Z,51.61
2022-07-25T15:19:37.461Z,50.66
2022-07-25T15:21:40.604Z,49.57
2022-07-25T15:23:45.079Z,50.09
2022-07-25T15:26:04.323Z,50.03
2022-07-25T15:28:08.488Z,49.79
2022-07-25T15:30:12.326Z,49.00
2022-07-25T15:32:15.385Z,49.69
2022-07-25T15:34:18.724Z,49.62
2022-07-25T15:36:24.556Z,49.50
2022-07-25T15:38:32.049Z,49.62
2022-07-25T15:40:36.779Z,48.38
2022-07-25T15:42:40.377Z,48.47
2022-07-25T15:44:43.563Z,48.74
2022-07-25T15:46:47.175Z,49.18
2022-07-25T15:48:50.409Z,48.44
2022-07-25T15:50:54.722Z,49.29
2022-07-25T15:52:57.824Z,50.25
2022-07-25T15:55:00.955Z,50.36
2022-07-25T15:57:07.092Z,50.83
2022-07-25T15:59:10.701Z,51.50
2022-07-25T16:01:13.989Z,52.06
2022-07-25T16:03:17.207Z,51.65
2022-07-25T16:05:20.368Z,52.20
2022-07-25T16:07:23.585Z,52.30
2022-07-25T16:09:26.693Z,52.60
2022-07-25T16:11:29.888Z,52.92
2022-07-25T16:13:34.416Z,52.71
2022-07-25T16:15:37.503Z,52.89
2022-07-25T16:17:40.823Z,53.52
2022-07-25T16:19:43.941Z,53.67
2022-07-25T16:21:47.969Z,53.86
2022-07-25T16:23:51.074Z,54.15
2022-07-25T16:25:54.290Z,54.26
2022-07-25T16:27:58.442Z,53.74
2022-07-25T16:30:03.209Z,53.71
2022-07-25T16:32:07.470Z,54.91
2022-07-25T16:34:11.183Z,53.11
2022-07-25T16:36:14.343Z,54.05
2022-07-25T16:38:18.068Z,53.93
2022-07-25T16:40:22.330Z,54.48
2022-07-25T16:42:27.996Z,53.48
2022-07-25T16:44:31.220Z,52.32
2022-07-25T16:46:35.944Z,53.38
2022-07-25T16:48:39.277Z,53.82
2022-07-25T16:50:42.350Z,52.65
2022-07-25T16:52:45.850Z,53.25
2022-07-25T16:54:48.967Z,51.97
2022-07-25T16:56:55.575Z,52.15
2022-07-25T16:59:00.856Z,52.52
2022-07-25T17:01:03.962Z,51.75
2022-07-25T17:03:08.460Z,52.25
2022-07-25T17:05:11.808Z,51.88
2022-07-25T17:07:15.027Z,52.20
2022-07-25T17:09:18.275Z,52.18
2022-07-25T17:11:21.569Z,52.71
2022-07-25T17:13:24.840Z,52.51
2022-07-25T17:15:28.062Z,51.52
2022-07-25T17:17:31.738Z,51.46
2022-07-25T17:19:39.664Z,51.64
2022-07-25T17:21:42.898Z,51.02
2022-07-25T17:23:47.102Z,51.74
2022-07-25T17:25:50.845Z,51.13
2022-07-25T17:27:54.061Z,51.67
2022-07-25T17:29:57.223Z,51.71
2022-07-25T17:32:00.398Z,51.44
2022-07-25T17:34:03.627Z,51.81
2022-07-25T17:36:08.756Z,51.52
2022-07-25T17:38:12.734Z,52.51
2022-07-25T17:40:17.914Z,51.78
2022-07-25T17:42:22.271Z,53.29
2022-07-25T17:44:25.771Z,53.14
2022-07-25T17:46:29.150Z,53.11
2022-07-25T17:48:32.354Z,52.88
2022-07-25T17:50:35.521Z,53.31
2022-07-25T17:52:40.049Z,52.56
2022-07-25T17:54:43.375Z,53.10
2022-07-25T17:56:46.818Z,53.60
2022-07-25T17:58:49.886Z,53.43
2022-07-25T18:00:56.849Z,54.69
2022-07-25T18:03:02.763Z,53.95
2022-07-25T18:05:06.948Z,54.25
2022-07-25T18:07:10.131Z,53.66
2022-07-25T18:09:14.577Z,55.04
2022-07-25T18:11:17.909Z,53.21
2022-07-25T18:13:21.986Z,53.84
2022-07-25T18:15:25.435Z,54.25
2022-07-25T18:17:28.532Z,53.26
2022-07-25T18:19:31.695Z,53.70
2022-07-25T18:21:34.932Z,54.01
2022-07-25T18:23:38.028Z,54.45
2022-07-25T18:25:42.523Z,53.90
2022-07-25T18:27:47.040Z,54.48
2022-07-25T18:29:50.250Z,54.53
2022-07-25T18:31:53.484Z,54.31
2022-07-25T18:33:57.079Z,54.72
2022-07-25T18:36:04.088Z,54.49
2022-07-25T18:38:11.538Z,53.99
2022-07-25T18:40:14.889Z,54.54
2022-07-25T18:42:19.548Z,54.57
2022-07-25T18:44:22.730Z,55.04
2022-07-25T18:46:26.024Z,54.34
2022-07-25T18:48:29.190Z,54.80
2022-07-25T18:50:32.445Z,54.94
2022-07-25T18:52:36.287Z,55.43
2022-07-25T18:54:39.479Z,55.18
2022-07-25T18:56:44.002Z,55.05
2022-07-25T18:58:48.484Z,55.54
2022-07-25T19:00:51.625Z,55.46
2022-07-25T19:02:54.910Z,55.54
2022-07-25T19:04:58.109Z,55.37
2022-07-25T19:07:01.412Z,55.29
2022-07-25T19:09:04.760Z,55.89
2022-07-25T19:11:08.540Z,55.52
2022-07-25T19:13:26.835Z,55.48
2022-07-25T19:15:36.599Z,55.20
2022-07-25T19:17:39.905Z,55.24
2022-07-25T19:19:43.907Z,55.83
2022-07-25T19:21:47.101Z,55.19
2022-07-25T19:23:51.362Z,55.48
2022-07-25T19:25:55.225Z,55.64
2022-07-25T19:27:58.337Z,54.91
2022-07-25T19:30:01.602Z,55.03
2022-07-25T19:32:07.176Z,55.63
2022-07-25T19:34:11.051Z,55.83
2022-07-25T19:36:14.788Z,55.85
2022-07-25T19:38:17.913Z,55.71
2022-07-25T19:40:21.066Z,55.87
2022-07-25T19:42:24.189Z,55.31
2022-07-25T19:44:27.276Z,56.16
2022-07-25T19:46:33.530Z,55.92
2022-07-25T19:48:38.242Z,56.05
2022-07-25T19:50:41.807Z,55.80
2022-07-25T19:52:45.211Z,56.02
2022-07-25T19:54:48.394Z,56.46
2022-07-25T19:56:51.559Z,56.01
2022-07-25T19:58:54.777Z,56.47
2022-07-25T20:00:57.958Z,55.69
2022-07-25T20:03:01.478Z,56.39
2022-07-25T20:05:06.402Z,56.45
2022-07-25T20:07:09.479Z,56.47
2022-07-25T20:09:12.606Z,56.23
2022-07-25T20:11:16.799Z,56.67
2022-07-25T20:13:19.861Z,56.97
2022-07-25T20:15:23.104Z,56.93
2022-07-25T20:17:26.714Z,56.23
2022-07-25T20:19:29.960Z,56.34
2022-07-25T20:21:34.550Z,56.51
2022-07-25T20:23:38.164Z,57.14
2022-07-25T20:25:41.243Z,56.90
2022-07-25T20:27:44.358Z,56.42
2022-07-25T20:29:47.431Z,57.56
2022-07-25T20:31:52.636Z,57.03
2022-07-25T20:33:56.076Z,56.43
2022-07-25T20:35:59.842Z,57.18
2022-07-25T20:38:09.490Z,57.32
2022-07-25T20:40:13.671Z,57.90
2022-07-25T20:42:16.866Z,56.97
2022-07-25T20:44:20.020Z,57.73
2022-07-25T20:46:23.497Z,57.45
2022-07-25T20:48:27.123Z,57.22
2022-07-25T20:50:30.274Z,57.13
2022-07-25T20:52:33.678Z,57.41
2022-07-25T20:54:39.185Z,58.21
2022-07-25T20:56:42.258Z,57.59
2022-07-25T20:58:45.329Z,57.65
2022-07-25T21:00:48.366Z,57.70
2022-07-25T21:02:51.798Z,59.03
2022-07-25T21:04:54.993Z,59.10
2022-07-25T21:06:58.067Z,58.57
2022-07-25T21:09:01.237Z,59.26
2022-07-25T21:11:06.218Z,59.15
2022-07-25T21:13:09.266Z,59.59
2022-07-25T21:15:12.931Z,59.44
2022-07-25T21:17:15.997Z,60.04
2022-07-25T21:19:19.033Z,60.02
2022-07-25T21:21:22.133Z,59.06
2022-07-25T21:23:26.373Z,59.11
2022-07-25T21:25:29.418Z,59.62
2022-07-25T21:27:33.859Z,61.12
2022-07-25T21:29:37.098Z,60.33
2022-07-25T21:31:40.241Z,59.67
2022-07-25T21:33:43.310Z,59.81
2022-07-25T21:35:50.458Z,59.97
2022-07-25T21:37:56.154Z,60.51
2022-07-25T21:39:59.181Z,60.48
2022-07-25T21:42:02.253Z,60.60
2022-07-25T21:44:08.654Z,60.90
2022-07-25T21:46:11.853Z,60.94
2022-07-25T21:48:15.109Z,60.16
2022-07-25T21:50:35.716Z,60.14
2022-07-25T21:52:45.271Z,60.25
2022-07-25T21:54:48.580Z,60.78
2022-07-25T21:56:52.559Z,60.35
2022-07-25T21:58:55.768Z,60.00
2022-07-25T22:01:00.407Z,59.04
2022-07-25T22:03:03.475Z,59.75
2022-07-25T22:05:07.323Z,59.95
2022-07-25T22:07:10.408Z,59.80
2022-07-25T22:09:13.675Z,60.26
2022-07-25T22:11:39.093Z,60.55
2022-07-25T22:13:43.032Z,60.43
2022-07-25T22:15:46.248Z,59.94
2022-07-25T22:17:50.653Z,60.58
2022-07-25T22:19:53.710Z,60.41
2022-07-25T22:21:56.808Z,60.71
2022-07-25T22:23:59.846Z,61.08
2022-07-25T22:26:03.131Z,61.75
2022-07-25T22:28:06.584Z,60.99
2022-07-25T22:30:18.705Z,61.35
2022-07-25T22:32:22.438Z,61.73
2022-07-25T22:34:27.008Z,61.89
2022-07-25T22:36:30.006Z,62.44
2022-07-25T22:38:33.088Z,62.29
2022-07-25T22:40:36.146Z,62.73
2022-07-25T22:42:39.248Z,62.02
2022-07-25T22:44:42.332Z,62.31
2022-07-25T22:46:46.127Z,62.56
2022-07-25T22:48:49.224Z,62.48
2022-07-25T22:50:53.737Z,62.52
2022-07-25T22:52:56.747Z,62.81
2022-07-25T22:54:59.746Z,62.45
2022-07-25T22:57:02.964Z,62.93
2022-07-25T22:59:06.250Z,62.63
2022-07-25T23:01:10.150Z,62.25
2022-07-25T23:03:13.248Z,63.27
2022-07-25T23:05:16.300Z,62.34
2022-07-25T23:07:20.778Z,63.15
2022-07-25T23:09:24.349Z,62.52
2022-07-25T23:11:39.377Z,63.76
2022-07-25T23:13:42.366Z,63.48
2022-07-25T23:15:51.121Z,63.31
2022-07-25T23:17:54.380Z,63.29
2022-07-25T23:19:57.589Z,63.54
2022-07-25T23:22:00.641Z,63.03
2022-07-25T23:24:05.597Z,63.51
2022-07-25T23:26:08.669Z,64.04
2022-07-25T23:28:11.678Z,63.55
2022-07-25T23:30:16.513Z,64.77
2022-07-25T23:32:19.935Z,64.04
2022-07-25T23:34:23.021Z,64.81
2022-07-25T23:36:26.085Z,64.84
2022-07-25T23:38:29.158Z,65.11
2022-07-25T23:40:33.498Z,65.27
2022-07-25T23:42:36.515Z,65.27
2022-07-25T23:44:42.049Z,65.59
2022-07-25T23:46:47.583Z,64.96
2022-07-25T23:48:50.604Z,65.15
2022-07-25T23:50:53.684Z,66.37
2022-07-25T23:52:56.725Z,66.53
2022-07-25T23:54:59.722Z,66.74
2022-07-25T23:57:04.292Z,65.90
2022-07-25T23:59:07.643Z,66.43
